createdAt,value
2023-08-06T00:11:36.128Z,17.84
2023-08-06T00:26:42.246Z,17.74
2023-08-06T00:41:48.555Z,17.70
2023-08-06T00:56:54.925Z,17.59
2023-08-06T01:12:08.359Z,17.58
2023-08-06T01:27:21.420Z,17.41
2023-08-06T01:42:27.662Z,17.09
2023-08-06T01:57:34.162Z,17.06
2023-08-06T02:12:40.414Z,17.24
2023-08-06T02:27:46.647Z,17.21
2023-08-06T02:42:52.870Z,16.65
2023-08-06T02:57:59.184Z,14.29
2023-08-06T03:13:05.432Z,13.34
2023-08-06T03:28:11.901Z,13.23
2023-08-06T03:43:18.089Z,13.12
2023-08-06T03:58:24.420Z,13.06
2023-08-06T04:13:30.629Z,13.06
2023-08-06T04:28:37.068Z,13.25
2023-08-06T04:43:43.403Z,13.40
2023-08-06T04:58:49.719Z,13.45
2023-08-06T05:13:56.070Z,13.45
2023-08-06T05:29:02.465Z,13.33
2023-08-06T05:44:08.653Z,13.52
2023-08-06T05:59:15.122Z,13.59
2023-08-06T06:14:21.477Z,13.66
2023-08-06T06:29:27.760Z,13.68
2023-08-06T06:44:33.999Z,13.63
2023-08-06T06:59:41.255Z,13.41
2023-08-06T07:14:47.508Z,13.54
2023-08-06T07:29:53.860Z,13.52
2023-08-06T07:45:01.122Z,14.05
2023-08-06T08:00:08.884Z,14.30
2023-08-06T08:15:15.221Z,14.62
2023-08-06T08:30:21.564Z,15.10
2023-08-06T08:45:31.977Z,14.81
2023-08-06T09:00:38.840Z,14.78
2023-08-06T09:15:46.058Z,15.62
2023-08-06T09:30:53.265Z,15.13
2023-08-06T09:45:59.403Z,14.96
2023-08-06T10:01:06.952Z,15.21
2023-08-06T10:16:13.256Z,15.25
2023-08-06T10:31:19.569Z,15.49
2023-08-06T10:46:31.325Z,15.60
2023-08-06T11:01:38.351Z,15.70
2023-08-06T11:16:44.836Z,16.32
2023-08-06T11:31:51.188Z,17.00
2023-08-06T11:47:00.995Z,18.14
2023-08-06T12:02:08.426Z,16.05
2023-08-06T12:17:14.614Z,16.04
2023-08-06T12:32:21.650Z,15.72
2023-08-06T12:47:28.165Z,17.66
2023-08-06T13:02:34.563Z,16.65
2023-08-06T13:17:40.963Z,17.83
2023-08-06T13:32:47.353Z,19.83
2023-08-06T13:47:53.565Z,19.02
2023-08-06T14:02:59.951Z,18.51
2023-08-06T14:18:06.396Z,17.73
2023-08-06T14:33:26.010Z,19.95
2023-08-06T14:48:35.370Z,17.66
2023-08-06T15:03:41.733Z,18.36
2023-08-06T15:18:48.040Z,17.68
2023-08-06T15:33:55.451Z,17.56
2023-08-06T15:49:03.092Z,17.47
2023-08-06T16:04:09.435Z,17.43
2023-08-06T16:19:16.290Z,18.79
2023-08-06T16:34:22.701Z,18.11
2023-08-06T16:49:28.980Z,17.01
2023-08-06T17:04:35.234Z,16.63
2023-08-06T17:19:41.405Z,16.94
2023-08-06T17:34:47.656Z,16.98
2023-08-06T17:49:54.086Z,17.14
2023-08-06T18:05:00.207Z,16.20
2023-08-06T18:20:06.944Z,15.73
2023-08-06T18:35:13.704Z,15.44
2023-08-06T18:50:20.277Z,14.82
2023-08-06T19:05:29.274Z,14.38
2023-08-06T19:20:37.221Z,13.97
2023-08-06T19:35:51.595Z,13.92
2023-08-06T19:51:02.966Z,14.34
2023-08-06T20:06:09.831Z,14.82
2023-08-06T20:21:15.990Z,14.57
2023-08-06T20:36:22.246Z,14.15
2023-08-06T20:51:28.406Z,14.07
2023-08-06T21:06:34.709Z,13.94
2023-08-06T21:21:42.076Z,13.68
2023-08-06T21:36:48.492Z,13.61
2023-08-06T21:51:55.441Z,13.68
2023-08-06T22:07:02.174Z,13.75
2023-08-06T22:22:08.927Z,13.83
2023-08-06T22:37:15.313Z,13.95
2023-08-06T22:52:21.602Z,14.21
2023-08-06T23:07:27.751Z,14.24
2023-08-06T23:22:33.904Z,14.21
2023-08-06T23:37:40.237Z,14.04
2023-08-06T23:52:46.556Z,13.95
